createdAt,value
2019-04-30T00:00:40.255Z,0.00
2019-04-30T00:01:40.223Z,0.00
2019-04-30T00:02:40.209Z,0.00
2019-04-30T00:03:40.190Z,0.00
2019-04-30T00:04:40.547Z,0.00
2019-04-30T00:05:40.089Z,0.00
2019-04-30T00:06:40.110Z,0.00
2019-04-30T00:07:40.046Z,0.00
2019-04-30T00:08:39.981Z,0.00
2019-04-30T00:09:39.968Z,0.00
2019-04-30T00:10:41.406Z,0.00
2019-04-30T00:11:39.929Z,0.00
2019-04-30T00:12:39.858Z,0.00
2019-04-30T00:13:40.029Z,0.00
2019-04-30T00:14:41.318Z,0.00
2019-04-30T00:15:39.788Z,0.00
2019-04-30T00:16:40.162Z,0.00
2019-04-30T00:17:39.721Z,0.00
2019-04-30T00:18:40.883Z,0.00
2019-04-30T00:19:39.655Z,0.00
2019-04-30T00:20:39.551Z,0.00
2019-04-30T00:21:39.598Z,0.00
2019-04-30T00:22:47.100Z,0.00
2019-04-30T00:23:39.511Z,0.00
2019-04-30T00:24:39.844Z,0.00
2019-04-30T00:25:39.468Z,0.00
2019-04-30T00:26:39.850Z,0.00
2019-04-30T00:27:39.366Z,0.00
2019-04-30T00:28:43.486Z,0.00
2019-04-30T00:29:39.331Z,0.00
2019-04-30T00:30:43.518Z,0.00
2019-04-30T00:31:39.360Z,0.00
2019-04-30T00:32:43.702Z,0.00
2019-04-30T00:33:39.363Z,0.00
2019-04-30T00:34:39.436Z,0.00
2019-04-30T00:35:39.218Z,0.00
2019-04-30T00:36:39.132Z,0.00
2019-04-30T00:37:39.118Z,0.00
2019-04-30T00:38:39.033Z,0.00
2019-04-30T00:39:39.037Z,0.00
2019-04-30T00:40:39.032Z,0.00
2019-04-30T00:41:39.852Z,0.00
2019-04-30T00:42:38.960Z,0.00
2019-04-30T00:43:46.451Z,0.00
2019-04-30T00:44:38.888Z,0.00
2019-04-30T00:45:39.881Z,0.00
2019-04-30T00:46:38.805Z,0.00
2019-04-30T00:47:39.507Z,0.00
2019-04-30T00:48:38.766Z,0.00
2019-04-30T00:49:39.025Z,0.00
2019-04-30T00:50:38.678Z,0.00
2019-04-30T00:51:38.633Z,0.00
2019-04-30T00:52:38.624Z,0.00
2019-04-30T00:53:38.561Z,0.00
2019-04-30T00:54:38.526Z,0.00
2019-04-30T00:55:44.332Z,0.00
2019-04-30T00:56:38.495Z,0.00
2019-04-30T00:57:43.667Z,0.00
2019-04-30T00:58:38.414Z,0.00
2019-04-30T00:59:39.719Z,0.00
2019-04-30T01:00:38.515Z,0.00
2019-04-30T01:01:43.601Z,0.00
2019-04-30T01:02:38.300Z,0.00
2019-04-30T01:03:39.413Z,0.00
2019-04-30T01:04:38.207Z,0.00
2019-04-30T01:05:39.549Z,0.00
2019-04-30T01:06:38.304Z,0.00
2019-04-30T01:07:39.652Z,0.00
2019-04-30T01:08:38.109Z,0.00
2019-04-30T01:09:39.721Z,0.00
2019-04-30T01:10:38.019Z,0.00
2019-04-30T01:11:39.717Z,0.00
2019-04-30T01:12:43.879Z,0.00
2019-04-30T01:13:38.925Z,0.00
2019-04-30T01:14:38.646Z,0.00
2019-04-30T01:15:39.077Z,0.00
2019-04-30T01:16:39.418Z,0.00
2019-04-30T01:17:38.241Z,0.00
2019-04-30T01:18:39.006Z,0.00
2019-04-30T01:19:39.523Z,0.00
2019-04-30T01:20:38.610Z,0.00
2019-04-30T01:21:41.771Z,0.00
2019-04-30T01:22:38.883Z,0.00
2019-04-30T01:24:38.706Z,0.00
2019-04-30T01:25:38.896Z,0.00
2019-04-30T01:26:39.271Z,0.00
2019-04-30T01:27:39.425Z,0.00
2019-04-30T01:28:38.588Z,0.00
2019-04-30T01:29:40.795Z,0.00
2019-04-30T01:30:39.278Z,0.00
2019-04-30T01:31:40.606Z,0.00
2019-04-30T01:32:37.343Z,0.00
2019-04-30T01:33:38.900Z,0.00
2019-04-30T01:34:39.375Z,0.00
2019-04-30T01:35:38.251Z,0.00
2019-04-30T01:36:38.854Z,0.00
2019-04-30T01:37:38.665Z,0.00
2019-04-30T01:38:40.008Z,0.00
2019-04-30T01:39:38.774Z,0.00
2019-04-30T01:41:39.983Z,0.00
2019-04-30T01:42:42.858Z,0.00
2019-04-30T01:43:38.494Z,0.00
2019-04-30T01:44:39.096Z,0.00
2019-04-30T01:45:38.569Z,0.00
2019-04-30T01:46:36.855Z,0.00
2019-04-30T01:47:36.880Z,0.00
2019-04-30T01:48:36.832Z,0.00
2019-04-30T01:49:42.932Z,0.00
2019-04-30T01:50:38.767Z,0.00
2019-04-30T01:51:38.583Z,0.00
2019-04-30T01:52:36.655Z,0.00
2019-04-30T01:53:38.555Z,0.00
2019-04-30T01:54:36.591Z,0.00
2019-04-30T01:55:36.795Z,0.00
2019-04-30T01:56:36.612Z,0.00
2019-04-30T01:57:36.510Z,0.00
2019-04-30T01:58:36.654Z,0.00
2019-04-30T01:59:36.485Z,0.00
2019-04-30T02:00:36.416Z,0.00
2019-04-30T02:01:36.390Z,0.00
2019-04-30T02:02:36.359Z,0.00
2019-04-30T02:03:36.329Z,0.00
2019-04-30T02:04:36.434Z,0.00
2019-04-30T02:05:36.271Z,0.00
2019-04-30T02:06:36.228Z,0.00
2019-04-30T02:07:36.222Z,0.00
2019-04-30T02:08:36.182Z,0.00
2019-04-30T02:09:36.163Z,0.00
2019-04-30T02:10:36.120Z,0.00
2019-04-30T02:11:36.159Z,0.00
2019-04-30T02:12:36.066Z,0.00
2019-04-30T02:13:36.008Z,0.00
2019-04-30T02:14:36.007Z,0.00
2019-04-30T02:15:36.003Z,0.00
2019-04-30T02:16:35.925Z,0.00
2019-04-30T02:17:35.896Z,0.00
2019-04-30T02:18:36.284Z,0.00
2019-04-30T02:19:35.803Z,0.00
2019-04-30T02:20:35.767Z,0.00
2019-04-30T02:21:36.023Z,0.00
2019-04-30T02:22:35.800Z,0.00
2019-04-30T02:23:35.678Z,0.00
2019-04-30T02:24:35.969Z,0.00
2019-04-30T02:25:35.632Z,0.00
2019-04-30T02:26:35.623Z,0.00
2019-04-30T02:27:35.530Z,0.00
2019-04-30T02:28:35.522Z,0.00
2019-04-30T02:29:35.539Z,0.00
2019-04-30T02:30:35.777Z,0.00
2019-04-30T02:31:35.455Z,0.00
2019-04-30T02:32:35.430Z,0.00
2019-04-30T02:33:35.354Z,0.00
2019-04-30T02:34:35.361Z,0.00
2019-04-30T02:35:35.335Z,0.00
2019-04-30T02:36:35.291Z,0.00
2019-04-30T02:37:35.250Z,0.00
2019-04-30T02:38:35.224Z,0.00
2019-04-30T02:39:35.263Z,0.00
2019-04-30T02:40:35.194Z,0.00
2019-04-30T02:41:35.117Z,0.00
2019-04-30T02:42:35.096Z,0.00
2019-04-30T02:43:35.066Z,0.00
2019-04-30T02:44:35.043Z,0.00
2019-04-30T02:45:35.042Z,0.00
2019-04-30T02:46:34.973Z,0.00
2019-04-30T02:47:34.938Z,0.00
2019-04-30T02:48:34.896Z,0.00
2019-04-30T02:49:34.900Z,0.00
2019-04-30T02:50:34.853Z,0.00
2019-04-30T02:51:35.051Z,0.00
2019-04-30T02:52:34.800Z,0.00
2019-04-30T02:53:34.765Z,0.00
2019-04-30T02:54:34.659Z,0.00
2019-04-30T02:55:34.664Z,0.00
2019-04-30T02:56:34.652Z,0.00
2019-04-30T02:57:34.828Z,0.00
2019-04-30T02:58:34.544Z,0.00
2019-04-30T02:59:34.551Z,0.00
2019-04-30T03:00:34.526Z,0.00
2019-04-30T03:01:34.475Z,0.00
2019-04-30T03:02:34.436Z,0.00
2019-04-30T03:03:34.466Z,0.00
2019-04-30T03:04:34.495Z,0.00
2019-04-30T03:05:34.355Z,0.00
2019-04-30T03:06:34.330Z,0.00
2019-04-30T03:07:34.334Z,0.00
2019-04-30T03:08:34.400Z,0.00
2019-04-30T03:09:34.338Z,0.00
2019-04-30T03:10:34.236Z,0.00
2019-04-30T03:11:34.272Z,0.00
2019-04-30T03:12:34.161Z,0.00
2019-04-30T03:13:37.675Z,0.00
2019-04-30T03:14:34.203Z,0.00
2019-04-30T03:15:34.310Z,0.00
2019-04-30T03:16:34.051Z,0.00
2019-04-30T03:17:33.982Z,0.00
2019-04-30T03:18:33.992Z,0.00
2019-04-30T03:19:34.236Z,0.00
2019-04-30T03:20:36.422Z,0.00
2019-04-30T03:21:33.897Z,0.00
2019-04-30T03:22:33.852Z,0.00
2019-04-30T03:23:33.775Z,0.00
2019-04-30T03:24:33.766Z,0.00
2019-04-30T03:25:33.781Z,0.00
2019-04-30T03:26:33.819Z,0.00
2019-04-30T03:27:33.625Z,0.00
2019-04-30T03:28:33.595Z,0.00
2019-04-30T03:29:33.574Z,0.00
2019-04-30T03:30:33.623Z,0.00
2019-04-30T03:31:33.531Z,0.00
2019-04-30T03:32:36.836Z,0.00
2019-04-30T03:33:33.486Z,0.00
2019-04-30T03:34:33.584Z,0.00
2019-04-30T03:35:33.387Z,0.00
2019-04-30T03:36:33.685Z,0.00
2019-04-30T03:37:33.312Z,0.00
2019-04-30T03:38:33.290Z,0.00
2019-04-30T03:39:33.931Z,0.00
2019-04-30T03:40:33.177Z,0.00
2019-04-30T03:42:33.122Z,0.00
2019-04-30T03:43:33.124Z,0.00
2019-04-30T03:44:33.095Z,0.00
2019-04-30T03:45:33.050Z,0.00
2019-04-30T03:46:33.047Z,0.00
2019-04-30T03:47:32.976Z,0.00
2019-04-30T03:48:32.971Z,0.00
2019-04-30T03:49:32.922Z,0.00
2019-04-30T03:50:48.475Z,0.00
2019-04-30T03:51:32.838Z,0.00
2019-04-30T03:52:32.989Z,0.00
2019-04-30T03:53:32.740Z,0.00
2019-04-30T03:54:32.724Z,0.00
2019-04-30T03:55:32.764Z,0.00
2019-04-30T03:56:32.724Z,0.00
2019-04-30T03:57:32.669Z,0.00
2019-04-30T03:58:32.779Z,0.00
2019-04-30T03:59:32.648Z,0.00
2019-04-30T04:00:32.585Z,0.00
2019-04-30T04:01:32.530Z,0.00
2019-04-30T04:02:32.520Z,0.00
2019-04-30T04:03:32.487Z,0.00
2019-04-30T04:04:32.483Z,0.00
2019-04-30T04:05:32.385Z,0.00
2019-04-30T04:06:32.558Z,0.00
2019-04-30T04:07:32.377Z,0.00
2019-04-30T04:08:32.310Z,0.00
2019-04-30T04:09:32.468Z,0.00
2019-04-30T04:10:32.245Z,0.00
2019-04-30T04:11:32.152Z,0.00
2019-04-30T04:12:32.182Z,0.00
2019-04-30T04:13:33.100Z,0.00
2019-04-30T04:14:32.058Z,0.00
2019-04-30T04:15:32.080Z,0.00
2019-04-30T04:16:32.265Z,0.00
2019-04-30T04:17:31.971Z,0.00
2019-04-30T04:18:31.955Z,0.00
2019-04-30T04:19:31.915Z,0.00
2019-04-30T04:20:31.886Z,0.00
2019-04-30T04:21:31.834Z,0.00
2019-04-30T04:22:31.800Z,0.00
2019-04-30T04:23:32.843Z,0.00
2019-04-30T04:24:31.735Z,0.00
2019-04-30T04:25:31.929Z,0.00
2019-04-30T04:26:31.777Z,0.00
2019-04-30T04:27:31.685Z,0.00
2019-04-30T04:28:31.605Z,0.00
2019-04-30T04:29:31.622Z,0.00
2019-04-30T04:30:31.606Z,0.00
2019-04-30T04:31:31.660Z,0.00
2019-04-30T04:32:31.476Z,0.00
2019-04-30T04:33:31.475Z,0.00
2019-04-30T04:34:31.439Z,0.00
2019-04-30T04:35:31.383Z,0.00
2019-04-30T04:36:31.351Z,0.00
2019-04-30T04:37:31.317Z,0.00
2019-04-30T04:38:31.319Z,0.00
2019-04-30T04:39:31.274Z,0.00
2019-04-30T04:40:31.218Z,0.00
2019-04-30T04:41:31.214Z,0.00
2019-04-30T04:42:33.118Z,0.00
2019-04-30T04:43:31.122Z,0.00
2019-04-30T04:44:31.089Z,0.00
2019-04-30T04:45:31.060Z,0.00
2019-04-30T04:46:31.048Z,0.00
2019-04-30T04:47:31.247Z,0.00
2019-04-30T04:48:30.977Z,0.00
2019-04-30T04:49:30.931Z,0.00
2019-04-30T04:50:30.893Z,0.00
2019-04-30T04:51:38.131Z,0.00
2019-04-30T04:52:31.649Z,0.00
2019-04-30T04:53:30.849Z,0.00
2019-04-30T04:54:30.787Z,0.00
2019-04-30T04:55:30.731Z,0.00
2019-04-30T04:56:30.718Z,0.00
2019-04-30T04:57:30.835Z,0.00
2019-04-30T04:58:30.739Z,0.00
2019-04-30T04:59:30.614Z,0.00
2019-04-30T05:00:30.599Z,0.00
2019-04-30T05:01:30.575Z,0.00
2019-04-30T05:02:32.815Z,0.00
2019-04-30T05:03:30.472Z,0.00
2019-04-30T05:04:30.466Z,0.00
2019-04-30T05:05:30.414Z,0.00
2019-04-30T05:06:30.395Z,0.00
2019-04-30T05:07:30.358Z,0.00
2019-04-30T05:08:30.356Z,0.00
2019-04-30T05:09:30.687Z,0.00
2019-04-30T05:10:30.279Z,0.00
2019-04-30T05:11:31.629Z,0.00
2019-04-30T05:12:30.193Z,0.00
2019-04-30T05:13:30.146Z,0.00
2019-04-30T05:14:30.132Z,0.00
2019-04-30T05:15:30.082Z,0.00
2019-04-30T05:16:30.066Z,0.00
2019-04-30T05:17:32.140Z,0.00
2019-04-30T05:18:29.989Z,0.00
2019-04-30T05:19:29.979Z,0.00
2019-04-30T05:20:29.921Z,0.00
2019-04-30T05:21:41.438Z,0.00
2019-04-30T05:22:29.873Z,0.00
2019-04-30T05:23:30.011Z,0.00
2019-04-30T05:24:29.801Z,0.00
2019-04-30T05:25:29.813Z,0.00
2019-04-30T05:26:29.744Z,0.00
2019-04-30T05:27:30.289Z,0.00
2019-04-30T05:28:30.152Z,0.00
2019-04-30T05:29:29.627Z,0.00
2019-04-30T05:30:29.642Z,0.00
2019-04-30T05:31:29.558Z,0.00
2019-04-30T05:32:29.551Z,0.00
2019-04-30T05:33:29.495Z,0.00
2019-04-30T05:34:29.478Z,0.00
2019-04-30T05:35:31.103Z,0.00
2019-04-30T05:36:29.398Z,0.00
2019-04-30T05:37:29.365Z,0.00
2019-04-30T05:38:31.340Z,0.00
2019-04-30T05:39:29.296Z,0.00
2019-04-30T05:40:29.297Z,0.00
2019-04-30T05:41:29.312Z,0.00
2019-04-30T05:42:29.221Z,0.00
2019-04-30T05:43:29.180Z,0.00
2019-04-30T05:44:29.836Z,0.00
2019-04-30T05:45:29.128Z,0.00
2019-04-30T05:46:29.843Z,0.00
2019-04-30T05:47:29.236Z,0.00
2019-04-30T05:48:29.004Z,0.00
2019-04-30T05:49:29.002Z,0.00
2019-04-30T05:50:29.640Z,0.00
2019-04-30T05:51:29.079Z,0.00
2019-04-30T05:52:29.533Z,0.00
2019-04-30T05:53:28.904Z,0.00
2019-04-30T05:54:29.208Z,0.00
2019-04-30T05:55:29.475Z,0.00
2019-04-30T05:56:30.359Z,0.00
2019-04-30T05:57:29.441Z,0.00
2019-04-30T05:58:29.957Z,0.00
2019-04-30T05:59:28.981Z,0.00
2019-04-30T06:00:30.408Z,0.00
2019-04-30T06:01:29.558Z,0.00
2019-04-30T06:02:33.649Z,0.00
2019-04-30T06:03:32.917Z,0.00
2019-04-30T06:04:29.437Z,0.00
2019-04-30T06:05:28.650Z,0.00
2019-04-30T06:06:29.061Z,0.00
2019-04-30T06:07:29.825Z,0.00
2019-04-30T06:08:29.190Z,0.00
2019-04-30T06:09:33.243Z,0.00
2019-04-30T06:10:29.383Z,0.00
2019-04-30T06:11:29.239Z,0.00
2019-04-30T06:13:28.719Z,0.00
2019-04-30T06:14:28.658Z,0.00
2019-04-30T06:15:29.044Z,0.00
2019-04-30T06:16:29.698Z,0.00
2019-04-30T06:17:29.370Z,0.00
2019-04-30T06:18:28.703Z,0.00
2019-04-30T06:19:29.252Z,0.00
2019-04-30T06:20:28.819Z,0.00
2019-04-30T06:21:29.529Z,0.00
2019-04-30T06:22:28.897Z,0.00
2019-04-30T06:23:29.405Z,0.00
2019-04-30T06:24:28.607Z,0.00
2019-04-30T06:25:36.883Z,0.00
2019-04-30T06:26:29.490Z,0.00
2019-04-30T06:27:29.128Z,0.00
2019-04-30T06:28:29.197Z,0.00
2019-04-30T06:29:28.999Z,0.00
2019-04-30T06:30:29.553Z,0.00
2019-04-30T06:31:34.284Z,0.00
2019-04-30T06:32:29.422Z,0.00
2019-04-30T06:33:28.979Z,0.00
2019-04-30T06:34:29.399Z,0.00
2019-04-30T06:35:29.228Z,0.00
2019-04-30T06:36:28.617Z,0.00
2019-04-30T06:37:28.814Z,0.00
2019-04-30T06:38:29.051Z,0.00
2019-04-30T06:39:28.817Z,0.00
2019-04-30T06:40:29.131Z,0.00
2019-04-30T06:41:27.272Z,0.00
2019-04-30T06:42:29.035Z,0.00
2019-04-30T06:43:28.679Z,0.00
2019-04-30T06:44:36.916Z,0.00
2019-04-30T06:45:28.912Z,0.00
2019-04-30T06:46:28.602Z,0.00
2019-04-30T06:47:32.989Z,0.00
2019-04-30T06:48:27.038Z,0.00
2019-04-30T06:49:28.754Z,0.00
2019-04-30T06:50:26.993Z,0.00
2019-04-30T06:51:30.603Z,0.00
2019-04-30T06:52:26.913Z,0.00
2019-04-30T06:53:26.917Z,0.00
2019-04-30T06:54:28.662Z,0.00
2019-04-30T06:55:26.829Z,0.00
2019-04-30T06:56:28.831Z,0.00
2019-04-30T06:57:26.771Z,0.00
2019-04-30T06:58:26.748Z,0.00
2019-04-30T06:59:26.707Z,0.00
2019-04-30T07:00:32.888Z,0.00
2019-04-30T07:01:26.618Z,0.00
2019-04-30T07:02:26.599Z,0.00
2019-04-30T07:03:26.547Z,0.00
2019-04-30T07:04:26.516Z,0.00
2019-04-30T07:05:28.241Z,0.00
2019-04-30T07:06:29.608Z,0.00
2019-04-30T07:07:36.379Z,0.00
2019-04-30T07:08:36.070Z,0.00
2019-04-30T07:09:26.737Z,0.00
2019-04-30T07:10:26.326Z,0.00
2019-04-30T07:11:26.421Z,0.00
2019-04-30T07:12:29.881Z,0.00
2019-04-30T07:13:26.218Z,0.00
2019-04-30T07:14:26.265Z,0.00
2019-04-30T07:15:26.175Z,0.00
2019-04-30T07:16:26.293Z,0.00
2019-04-30T07:17:26.098Z,0.00
2019-04-30T07:18:26.075Z,0.00
2019-04-30T07:19:32.990Z,0.00
2019-04-30T07:20:26.013Z,0.00
2019-04-30T07:21:25.987Z,0.00
2019-04-30T07:22:39.446Z,0.00
2019-04-30T07:23:25.897Z,0.00
2019-04-30T07:24:25.863Z,0.00
2019-04-30T07:25:25.853Z,0.00
2019-04-30T07:26:25.823Z,0.00
2019-04-30T07:27:25.758Z,0.00
2019-04-30T07:28:41.305Z,0.00
2019-04-30T07:29:25.708Z,0.00
2019-04-30T07:30:25.674Z,0.00
2019-04-30T07:31:25.646Z,0.00
2019-04-30T07:32:25.594Z,0.00
2019-04-30T07:33:25.580Z,0.00
2019-04-30T07:34:25.532Z,0.00
2019-04-30T07:35:25.491Z,0.00
2019-04-30T07:36:42.454Z,0.00
2019-04-30T07:37:25.430Z,0.00
2019-04-30T07:38:25.412Z,0.00
2019-04-30T07:39:31.173Z,0.00
2019-04-30T07:40:25.327Z,0.00
2019-04-30T07:41:25.303Z,0.00
2019-04-30T07:42:25.261Z,0.00
2019-04-30T07:43:25.226Z,0.00
2019-04-30T07:44:33.760Z,0.00
2019-04-30T07:45:25.709Z,0.00
2019-04-30T07:46:25.131Z,0.00
2019-04-30T07:47:25.102Z,0.00
2019-04-30T07:48:26.480Z,0.00
2019-04-30T07:49:25.061Z,0.00
2019-04-30T07:50:25.434Z,0.00
2019-04-30T07:51:25.332Z,0.00
2019-04-30T07:52:25.525Z,0.00
2019-04-30T07:53:24.924Z,0.00
2019-04-30T07:54:24.902Z,0.00
2019-04-30T07:55:24.838Z,0.00
2019-04-30T07:56:28.411Z,0.00
2019-04-30T07:57:24.891Z,0.00
2019-04-30T07:58:24.741Z,0.00
2019-04-30T07:59:24.775Z,0.00
2019-04-30T08:00:24.666Z,0.00
2019-04-30T08:01:24.656Z,0.00
2019-04-30T08:02:24.686Z,0.00
2019-04-30T08:03:24.952Z,0.00
2019-04-30T08:04:24.557Z,0.00
2019-04-30T08:05:24.632Z,0.00
2019-04-30T08:06:24.591Z,0.00
2019-04-30T08:07:24.507Z,0.00
2019-04-30T08:08:25.663Z,0.00
2019-04-30T08:09:24.377Z,0.00
2019-04-30T08:10:24.333Z,0.00
2019-04-30T08:11:26.420Z,0.00
2019-04-30T08:12:30.225Z,0.00
2019-04-30T08:13:24.654Z,0.00
2019-04-30T08:14:24.650Z,0.00
2019-04-30T08:15:24.211Z,0.00
2019-04-30T08:16:24.177Z,0.00
2019-04-30T08:17:24.127Z,0.00
2019-04-30T08:18:24.096Z,0.00
2019-04-30T08:19:24.058Z,0.00
2019-04-30T08:20:24.025Z,0.00
2019-04-30T08:21:24.177Z,0.00
2019-04-30T08:22:23.960Z,0.00
2019-04-30T08:23:34.095Z,0.00
2019-04-30T08:24:23.879Z,0.00
2019-04-30T08:25:23.862Z,0.00
2019-04-30T08:26:23.869Z,0.00
2019-04-30T08:27:23.792Z,0.00
2019-04-30T08:28:23.771Z,0.00
2019-04-30T08:29:23.707Z,0.00
2019-04-30T08:30:26.769Z,0.00
2019-04-30T08:31:23.662Z,0.00
2019-04-30T08:32:23.658Z,0.00
2019-04-30T08:33:23.587Z,0.00
2019-04-30T08:34:23.543Z,0.00
2019-04-30T08:35:23.533Z,0.00
2019-04-30T08:36:23.475Z,0.00
2019-04-30T08:37:23.442Z,0.00
2019-04-30T08:38:23.405Z,0.00
2019-04-30T08:39:23.397Z,0.00
2019-04-30T08:40:23.365Z,0.00
2019-04-30T08:41:23.357Z,0.00
2019-04-30T08:42:31.831Z,0.00
2019-04-30T08:43:23.264Z,0.00
2019-04-30T08:44:23.240Z,0.00
2019-04-30T08:45:23.201Z,0.00
2019-04-30T08:46:23.149Z,0.00
2019-04-30T08:47:23.120Z,0.00
2019-04-30T08:48:23.087Z,0.00
2019-04-30T08:49:23.265Z,0.00
2019-04-30T08:50:23.069Z,0.00
2019-04-30T08:51:22.977Z,0.00
2019-04-30T08:52:23.078Z,0.00
2019-04-30T08:53:29.445Z,0.00
2019-04-30T08:54:23.013Z,0.00
2019-04-30T08:55:22.866Z,0.00
2019-04-30T08:56:22.832Z,0.00
2019-04-30T08:57:22.804Z,0.00
2019-04-30T08:58:22.768Z,0.00
2019-04-30T08:59:22.736Z,0.00
2019-04-30T09:00:22.680Z,0.00
2019-04-30T09:01:22.655Z,0.00
2019-04-30T09:02:22.668Z,0.00
2019-04-30T09:03:22.599Z,0.00
2019-04-30T09:04:22.559Z,0.00
2019-04-30T09:05:22.534Z,0.00
2019-04-30T09:06:22.519Z,0.00
2019-04-30T09:07:22.468Z,0.00
2019-04-30T09:08:22.437Z,0.00
2019-04-30T09:09:22.381Z,0.00
2019-04-30T09:10:22.369Z,0.00
2019-04-30T09:11:28.319Z,0.00
2019-04-30T09:12:22.285Z,0.00
2019-04-30T09:13:22.247Z,0.00
2019-04-30T09:14:22.252Z,0.00
2019-04-30T09:15:22.221Z,0.00
2019-04-30T09:16:22.176Z,0.00
2019-04-30T09:17:22.140Z,0.00
2019-04-30T09:18:22.108Z,0.00
2019-04-30T09:19:22.080Z,0.00
2019-04-30T09:20:22.332Z,0.00
2019-04-30T09:21:22.017Z,0.00
2019-04-30T09:22:21.950Z,0.00
2019-04-30T09:23:21.918Z,0.00
2019-04-30T09:24:21.892Z,0.00
2019-04-30T09:25:21.859Z,0.00
2019-04-30T09:26:21.941Z,5.63
2019-04-30T09:27:21.812Z,5.63
2019-04-30T09:28:21.774Z,5.63
2019-04-30T09:29:21.719Z,5.63
2019-04-30T09:30:21.730Z,11.25
2019-04-30T09:31:21.674Z,11.25
2019-04-30T09:32:21.648Z,11.25
2019-04-30T09:33:21.607Z,11.25
2019-04-30T09:34:21.600Z,16.88
2019-04-30T09:35:21.529Z,16.88
2019-04-30T09:36:21.499Z,22.50
2019-04-30T09:37:21.455Z,28.13
2019-04-30T09:38:21.447Z,33.75
2019-04-30T09:39:23.127Z,28.13
2019-04-30T09:40:21.434Z,28.13
2019-04-30T09:41:21.319Z,28.13
2019-04-30T09:42:21.302Z,33.75
2019-04-30T09:43:21.271Z,33.75
2019-04-30T09:44:21.243Z,45.00
2019-04-30T09:45:21.185Z,50.63
2019-04-30T09:46:26.814Z,61.88
2019-04-30T09:47:21.133Z,61.88
2019-04-30T09:48:21.095Z,56.25
2019-04-30T09:49:21.089Z,50.63
2019-04-30T09:50:21.021Z,61.88
2019-04-30T09:51:24.177Z,84.38
2019-04-30T09:52:21.228Z,101.25
2019-04-30T09:53:21.129Z,101.25
2019-04-30T09:54:21.151Z,106.88
2019-04-30T09:55:20.868Z,112.50
2019-04-30T09:56:20.842Z,112.50
2019-04-30T09:57:20.819Z,112.50
2019-04-30T09:59:20.725Z,118.13
2019-04-30T10:00:20.731Z,146.25
2019-04-30T10:01:22.093Z,146.25
2019-04-30T10:02:20.674Z,146.25
2019-04-30T10:04:21.108Z,157.50
2019-04-30T10:05:20.749Z,157.50
2019-04-30T10:06:20.519Z,151.88
2019-04-30T10:07:20.491Z,151.88
2019-04-30T10:08:20.972Z,146.25
2019-04-30T10:09:20.431Z,135.00
2019-04-30T10:10:20.379Z,151.88
2019-04-30T10:11:20.336Z,157.50
2019-04-30T10:12:20.327Z,163.13
2019-04-30T10:13:20.271Z,146.25
2019-04-30T10:14:20.265Z,140.63
2019-04-30T10:15:20.231Z,157.50
2019-04-30T10:16:20.181Z,180.00
2019-04-30T10:17:20.166Z,185.63
2019-04-30T10:18:20.120Z,202.50
2019-04-30T10:19:20.109Z,202.50
2019-04-30T10:20:20.070Z,213.75
2019-04-30T10:21:20.020Z,219.38
2019-04-30T10:22:20.012Z,230.63
2019-04-30T10:23:20.057Z,247.50
2019-04-30T10:24:20.045Z,258.75
2019-04-30T10:25:19.944Z,258.75
2019-04-30T10:26:19.915Z,163.13
2019-04-30T10:27:19.833Z,168.75
2019-04-30T10:28:19.825Z,123.75
2019-04-30T10:29:19.770Z,247.50
2019-04-30T10:30:19.751Z,433.13
2019-04-30T10:31:20.944Z,556.88
2019-04-30T10:32:19.675Z,590.63
2019-04-30T10:33:19.678Z,163.13
2019-04-30T10:34:19.650Z,208.13
2019-04-30T10:35:20.374Z,450.00
2019-04-30T10:36:19.825Z,281.25
2019-04-30T10:37:19.549Z,106.88
2019-04-30T10:38:19.578Z,78.75
2019-04-30T10:39:21.756Z,73.13
2019-04-30T10:40:20.333Z,78.75
2019-04-30T10:41:19.402Z,84.38
2019-04-30T10:42:19.370Z,101.25
2019-04-30T10:43:19.785Z,112.50
2019-04-30T10:44:19.701Z,112.50
2019-04-30T10:45:19.372Z,106.88
2019-04-30T10:46:19.252Z,101.25
2019-04-30T10:47:19.347Z,101.25
2019-04-30T10:48:19.215Z,95.63
2019-04-30T10:49:19.378Z,95.63
2019-04-30T10:50:19.124Z,101.25
2019-04-30T10:51:19.112Z,101.25
2019-04-30T10:52:19.306Z,106.88
2019-04-30T10:53:19.045Z,106.88
2019-04-30T10:54:26.120Z,118.13
2019-04-30T10:55:18.970Z,129.38
2019-04-30T10:56:19.288Z,140.63
2019-04-30T10:57:19.139Z,151.88
2019-04-30T10:58:19.150Z,151.88
2019-04-30T10:59:18.841Z,151.88
2019-04-30T11:00:18.837Z,146.25
2019-04-30T11:01:19.255Z,140.63
2019-04-30T11:02:18.762Z,140.63
2019-04-30T11:03:22.465Z,146.25
2019-04-30T11:04:18.864Z,151.88
2019-04-30T11:05:18.799Z,163.13
2019-04-30T11:06:19.223Z,174.38
2019-04-30T11:07:18.720Z,191.25
2019-04-30T11:08:18.566Z,208.13
2019-04-30T11:09:18.603Z,230.63
2019-04-30T11:10:18.897Z,253.13
2019-04-30T11:11:18.493Z,264.38
2019-04-30T11:12:19.341Z,315.00
2019-04-30T11:13:18.426Z,270.00
2019-04-30T11:14:18.385Z,298.13
2019-04-30T11:15:20.596Z,343.13
2019-04-30T11:16:18.859Z,416.25
2019-04-30T11:17:19.767Z,315.00
2019-04-30T11:18:18.415Z,315.00
2019-04-30T11:19:19.274Z,410.63
2019-04-30T11:20:21.798Z,410.63
2019-04-30T11:21:19.659Z,1299.38
2019-04-30T11:22:18.319Z,1012.50
2019-04-30T11:23:20.994Z,939.38
2019-04-30T11:24:19.585Z,1254.38
2019-04-30T11:25:19.641Z,1366.88
2019-04-30T11:26:18.746Z,2846.25
2019-04-30T11:27:20.201Z,2475.00
2019-04-30T11:28:18.295Z,1648.13
2019-04-30T11:29:18.054Z,1226.25
2019-04-30T11:30:23.486Z,590.63
2019-04-30T11:31:17.987Z,933.75
2019-04-30T11:32:18.135Z,1102.50
2019-04-30T11:33:17.959Z,562.50
2019-04-30T11:34:17.783Z,461.25
2019-04-30T11:35:18.388Z,585.00
2019-04-30T11:36:19.324Z,1091.25
2019-04-30T11:37:17.686Z,911.25
2019-04-30T11:38:20.329Z,883.13
2019-04-30T11:39:18.598Z,843.75
2019-04-30T11:40:17.608Z,838.13
2019-04-30T11:41:29.792Z,450.00
2019-04-30T11:42:17.520Z,1333.13
2019-04-30T11:43:18.219Z,1057.50
2019-04-30T11:44:28.461Z,1186.88
2019-04-30T11:45:19.028Z,568.13
2019-04-30T11:46:18.683Z,478.13
2019-04-30T11:47:19.351Z,483.75
2019-04-30T11:48:19.029Z,371.25
2019-04-30T11:49:17.353Z,331.88
2019-04-30T11:50:17.293Z,421.88
2019-04-30T11:51:19.273Z,731.25
2019-04-30T11:52:17.270Z,787.50
2019-04-30T11:53:25.232Z,1721.25
2019-04-30T11:54:18.736Z,1271.25
2019-04-30T11:55:19.211Z,658.13
2019-04-30T11:56:17.144Z,1147.50
2019-04-30T11:57:18.728Z,3099.38
2019-04-30T11:58:21.678Z,2981.25
2019-04-30T11:59:17.027Z,2986.88
2019-04-30T12:00:18.569Z,2728.13
2019-04-30T12:01:16.964Z,2930.63
2019-04-30T12:02:17.013Z,2688.75
2019-04-30T12:03:18.957Z,2750.63
2019-04-30T12:04:17.004Z,2638.13
2019-04-30T12:05:20.350Z,2745.00
2019-04-30T12:06:18.441Z,3020.63
2019-04-30T12:07:16.777Z,2311.88
2019-04-30T12:08:16.767Z,2621.25
2019-04-30T12:09:19.827Z,1580.63
2019-04-30T12:10:16.718Z,646.88
2019-04-30T12:11:16.690Z,720.00
2019-04-30T12:12:16.641Z,742.50
2019-04-30T12:13:16.611Z,1068.75
2019-04-30T12:14:18.226Z,1822.50
2019-04-30T12:15:16.563Z,770.63
2019-04-30T12:16:18.539Z,2081.25
2019-04-30T12:17:16.843Z,3661.88
2019-04-30T12:18:16.722Z,1265.63
2019-04-30T12:19:16.442Z,3892.50
2019-04-30T12:20:16.559Z,3836.25
2019-04-30T12:21:16.427Z,2508.75
2019-04-30T12:22:20.060Z,1080.00
2019-04-30T12:23:16.347Z,765.00
2019-04-30T12:24:16.327Z,697.50
2019-04-30T12:25:16.281Z,630.00
2019-04-30T12:26:16.247Z,832.50
2019-04-30T12:27:16.244Z,1310.63
2019-04-30T12:28:16.218Z,2941.88
2019-04-30T12:29:16.165Z,2576.25
2019-04-30T12:30:16.137Z,1265.63
2019-04-30T12:31:16.283Z,1355.63
2019-04-30T12:32:16.094Z,1040.63
2019-04-30T12:33:16.059Z,2739.38
2019-04-30T12:34:16.052Z,556.88
2019-04-30T12:35:16.023Z,635.63
2019-04-30T12:36:15.971Z,1029.38
2019-04-30T12:37:16.200Z,511.88
2019-04-30T12:38:15.925Z,444.38
2019-04-30T12:39:15.894Z,1063.13
2019-04-30T12:40:26.720Z,916.88
2019-04-30T12:41:15.862Z,3369.38
2019-04-30T12:42:15.811Z,3071.25
2019-04-30T12:43:16.040Z,3200.63
2019-04-30T12:44:15.773Z,2188.13
2019-04-30T12:45:15.730Z,2576.25
2019-04-30T12:46:15.716Z,3003.75
2019-04-30T12:47:15.674Z,3285.00
2019-04-30T12:48:15.876Z,2576.25
2019-04-30T12:49:15.623Z,922.50
2019-04-30T12:50:15.624Z,742.50
2019-04-30T12:51:15.603Z,905.63
2019-04-30T12:52:15.545Z,669.38
2019-04-30T12:53:15.578Z,382.50
2019-04-30T12:54:15.508Z,680.63
2019-04-30T12:55:15.929Z,601.88
2019-04-30T12:56:15.472Z,579.38
2019-04-30T12:57:15.427Z,573.75
2019-04-30T12:58:15.695Z,303.75
2019-04-30T12:59:15.406Z,219.38
2019-04-30T13:00:15.345Z,315.00
2019-04-30T13:01:15.332Z,444.38
2019-04-30T13:02:15.323Z,388.13
2019-04-30T13:03:15.314Z,3723.75
2019-04-30T13:04:15.228Z,3335.63
2019-04-30T13:05:15.221Z,2711.25
2019-04-30T13:06:15.552Z,2463.75
2019-04-30T13:07:15.751Z,1327.50
2019-04-30T13:08:15.335Z,2756.25